createdAt,value
2019-02-14T00:00:30.548Z,79410.23
2019-02-14T00:03:08.419Z,79423.30
2019-02-14T00:05:40.620Z,79431.35
2019-02-14T00:08:13.152Z,79440.41
2019-02-14T00:10:44.415Z,79449.46
2019-02-14T00:13:15.839Z,79465.55
2019-02-14T00:15:47.175Z,79474.61
2019-02-14T00:18:20.230Z,79485.67
2019-02-14T00:20:51.571Z,79495.73
2019-02-14T00:23:26.769Z,79508.81
2019-02-14T00:26:02.740Z,79517.86
2019-02-14T00:28:34.330Z,79509.81
2019-02-14T00:31:05.956Z,79510.82
2019-02-14T00:33:37.258Z,79440.41
2019-02-14T00:36:08.673Z,79419.28
2019-02-14T00:38:40.294Z,79448.45
2019-02-14T00:41:11.681Z,79478.63
2019-02-14T00:43:42.993Z,79471.59
2019-02-14T00:46:14.404Z,79503.78
2019-02-14T00:48:45.766Z,79526.92
2019-02-14T00:51:17.180Z,79538.98
2019-02-14T00:53:48.421Z,79543.02
2019-02-14T00:56:19.788Z,79557.09
2019-02-14T00:58:51.197Z,79566.15
2019-02-14T01:01:22.482Z,79569.17
2019-02-14T01:03:53.891Z,79577.22
2019-02-14T01:06:25.248Z,79584.25
2019-02-14T01:08:56.616Z,79587.27
2019-02-14T01:11:27.815Z,79579.23
2019-02-14T01:13:59.134Z,79580.23
2019-02-14T01:16:31.427Z,79594.31
2019-02-14T01:19:02.937Z,79599.34
2019-02-14T01:21:34.351Z,79602.36
2019-02-14T01:24:05.609Z,79601.36
2019-02-14T01:26:36.867Z,79596.33
2019-02-14T01:29:08.223Z,79606.39
2019-02-14T01:31:39.551Z,79614.44
2019-02-14T01:34:10.755Z,79613.43
2019-02-14T01:36:42.029Z,79615.44
2019-02-14T01:39:13.333Z,79620.47
2019-02-14T01:41:44.670Z,79625.50
2019-02-14T01:44:15.995Z,79633.55
2019-02-14T01:46:47.396Z,79637.58
2019-02-14T01:49:18.677Z,79632.55
2019-02-14T01:51:49.965Z,79631.53
2019-02-14T01:54:21.305Z,79635.56
2019-02-14T01:56:52.584Z,79644.61
2019-02-14T01:59:23.939Z,79637.58
2019-02-14T02:01:55.379Z,79640.59
2019-02-14T02:04:26.795Z,79643.61
2019-02-14T02:06:58.039Z,79649.64
2019-02-14T02:09:29.335Z,79653.67
2019-02-14T02:12:00.782Z,79664.73
2019-02-14T02:14:32.212Z,79659.70
2019-02-14T02:17:05.118Z,79664.73
2019-02-14T02:19:36.475Z,79663.73
2019-02-14T02:22:08.138Z,79670.77
2019-02-14T02:24:39.558Z,79673.79
2019-02-14T02:27:10.900Z,79684.86
2019-02-14T02:29:42.234Z,79687.88
2019-02-14T02:32:13.511Z,79693.91
2019-02-14T02:34:44.765Z,79691.89
2019-02-14T02:37:16.057Z,79688.88
2019-02-14T02:39:47.364Z,79687.88
2019-02-14T02:42:18.683Z,79696.92
2019-02-14T02:44:49.972Z,79688.88
2019-02-14T02:47:21.206Z,79692.91
2019-02-14T02:49:52.456Z,79688.88
2019-02-14T02:52:23.629Z,79667.75
2019-02-14T02:54:54.809Z,79660.71
2019-02-14T02:57:26.423Z,79674.80
2019-02-14T02:59:57.671Z,79666.75
2019-02-14T03:02:28.945Z,79681.84
2019-02-14T03:05:00.380Z,79682.84
2019-02-14T03:07:32.215Z,79695.92
2019-02-14T03:10:03.481Z,79711.02
2019-02-14T03:12:34.754Z,79716.04
2019-02-14T03:15:06.503Z,79715.03
2019-02-14T03:17:37.976Z,79727.11
2019-02-14T03:20:11.500Z,79736.16
2019-02-14T03:22:42.842Z,79753.27
2019-02-14T03:28:02.030Z,79764.33
2019-02-14T03:30:33.309Z,79762.31
2019-02-14T03:33:04.616Z,79776.41
2019-02-14T03:35:36.064Z,79782.44
2019-02-14T03:38:07.325Z,79799.54
2019-02-14T03:40:38.902Z,79793.50
2019-02-14T03:43:10.158Z,79796.52
2019-02-14T03:45:41.622Z,79796.52
2019-02-14T03:48:12.796Z,79800.55
2019-02-14T03:50:44.257Z,79809.59
2019-02-14T03:53:15.688Z,79812.63
2019-02-14T03:55:46.968Z,79818.66
2019-02-14T03:58:18.372Z,79811.61
2019-02-14T04:00:49.750Z,79812.63
2019-02-14T04:03:20.992Z,79818.66
2019-02-14T04:05:52.208Z,79817.65
2019-02-14T04:08:23.549Z,79824.69
2019-02-14T04:10:54.786Z,79824.69
2019-02-14T04:13:26.202Z,79799.54
2019-02-14T04:15:57.635Z,79796.52
2019-02-14T04:18:28.998Z,79808.59
2019-02-14T04:21:00.372Z,79800.55
2019-02-14T04:23:34.008Z,79813.63
2019-02-14T04:26:05.195Z,79820.67
2019-02-14T04:28:36.375Z,79839.78
2019-02-14T04:31:07.692Z,79841.80
2019-02-14T04:33:38.993Z,79835.76
2019-02-14T04:36:10.376Z,79848.84
2019-02-14T04:38:42.752Z,79837.77
2019-02-14T04:41:14.102Z,79847.83
2019-02-14T04:43:45.427Z,79847.83
2019-02-14T04:46:16.799Z,79839.78
2019-02-14T04:48:48.046Z,79832.73
2019-02-14T04:51:19.289Z,79833.74
2019-02-14T04:53:56.290Z,79830.73
2019-02-14T04:56:27.575Z,79841.80
2019-02-14T04:58:58.815Z,79851.85
2019-02-14T05:01:30.021Z,79856.88
2019-02-14T05:04:01.365Z,79862.92
2019-02-14T05:06:32.888Z,79860.91
2019-02-14T05:09:05.842Z,79858.90
2019-02-14T05:11:37.739Z,79850.84
2019-02-14T05:14:10.143Z,79863.92
2019-02-14T05:16:41.403Z,79849.84
2019-02-14T05:19:12.724Z,79842.80
2019-02-14T05:21:44.008Z,79825.70
2019-02-14T05:24:15.209Z,79835.76
2019-02-14T05:26:46.496Z,79811.61
2019-02-14T05:29:17.761Z,79822.68
2019-02-14T05:31:49.010Z,79765.33
2019-02-14T05:34:20.309Z,79759.30
2019-02-14T05:36:54.713Z,79737.17
2019-02-14T05:39:24.657Z,79746.22
2019-02-14T05:41:55.993Z,79795.52
2019-02-14T05:44:27.198Z,79821.67
2019-02-14T05:46:58.423Z,79830.73
2019-02-14T05:49:29.600Z,79838.78
2019-02-14T05:52:00.908Z,79860.91
2019-02-14T05:54:32.172Z,79881.03
2019-02-14T05:57:03.437Z,79900.14
2019-02-14T05:59:34.700Z,79913.22
2019-02-14T06:02:06.031Z,79915.23
2019-02-14T06:04:37.375Z,79923.28
2019-02-14T06:07:08.717Z,79926.30
2019-02-14T06:09:39.953Z,79936.36
2019-02-14T06:12:11.278Z,79939.38
2019-02-14T06:14:42.651Z,79953.47
2019-02-14T06:17:13.988Z,79949.44
2019-02-14T06:19:45.226Z,79952.46
2019-02-14T06:22:16.617Z,79955.48
2019-02-14T06:24:47.880Z,79963.52
2019-02-14T06:27:19.265Z,79973.59
2019-02-14T06:29:50.545Z,79974.59
2019-02-14T06:32:22.139Z,79961.52
2019-02-14T06:34:53.480Z,79925.30
2019-02-14T06:37:24.735Z,79888.07
2019-02-14T06:39:56.094Z,79889.08
2019-02-14T06:42:27.332Z,79866.95
2019-02-14T06:44:58.569Z,79905.17
2019-02-14T06:47:29.812Z,79909.20
2019-02-14T06:50:01.092Z,79908.19
2019-02-14T06:52:32.279Z,79909.20
2019-02-14T06:55:03.526Z,79925.30
2019-02-14T06:57:34.777Z,79942.40
2019-02-14T07:00:06.773Z,79957.48
2019-02-14T07:02:38.024Z,79965.53
2019-02-14T07:05:10.001Z,79971.58
2019-02-14T07:07:41.339Z,79974.59
2019-02-14T07:10:12.779Z,79980.63
2019-02-14T07:12:44.050Z,79984.66
2019-02-14T07:15:15.550Z,79978.62
2019-02-14T07:17:46.859Z,79980.63
2019-02-14T07:20:18.246Z,79979.63
2019-02-14T07:22:49.539Z,79936.36
2019-02-14T07:25:20.830Z,79942.40
2019-02-14T07:27:52.116Z,79949.44
2019-02-14T07:30:23.454Z,79955.48
2019-02-14T07:32:54.739Z,79943.41
2019-02-14T07:35:26.134Z,79941.39
2019-02-14T07:37:57.449Z,79934.35
2019-02-14T07:40:29.755Z,79922.28
2019-02-14T07:43:01.152Z,79901.15
2019-02-14T07:45:32.428Z,79899.14
2019-02-14T07:48:03.724Z,79894.11
2019-02-14T07:50:35.015Z,79874.99
2019-02-14T07:53:06.312Z,79858.90
2019-02-14T07:55:37.544Z,79840.79
2019-02-14T07:58:08.828Z,79825.70
2019-02-14T08:00:40.099Z,79809.59
2019-02-14T08:03:11.327Z,79775.39
2019-02-14T08:05:42.605Z,79735.16
2019-02-14T08:08:13.762Z,79691.89
2019-02-14T08:10:45.082Z,79631.53
2019-02-14T08:13:16.271Z,79560.11
2019-02-14T08:15:47.547Z,79464.55
2019-02-14T08:18:18.774Z,79360.94
2019-02-14T08:20:50.043Z,79241.24
2019-02-14T08:23:21.335Z,79140.66
2019-02-14T08:25:52.567Z,79064.21
2019-02-14T08:28:23.833Z,79023.98
2019-02-14T08:30:55.080Z,78945.53
2019-02-14T08:33:26.381Z,78901.28
2019-02-14T08:35:57.634Z,78858.03
2019-02-14T08:38:28.889Z,78844.95
2019-02-14T08:41:00.176Z,78769.52
2019-02-14T08:43:31.447Z,78648.84
2019-02-14T08:46:02.792Z,78652.86
2019-02-14T08:48:34.041Z,78606.59
2019-02-14T08:51:05.404Z,78563.35
2019-02-14T08:53:36.684Z,78561.34
2019-02-14T08:56:07.877Z,78586.48
2019-02-14T08:58:39.143Z,78605.59
2019-02-14T09:01:10.381Z,78615.65
2019-02-14T09:03:41.609Z,78574.42
2019-02-14T09:06:12.868Z,78517.09
2019-02-14T09:08:44.095Z,78460.78
2019-02-14T09:11:15.355Z,78448.71
2019-02-14T09:13:46.592Z,78385.36
2019-02-14T09:16:17.872Z,78305.91
2019-02-14T09:18:49.168Z,78339.09
2019-02-14T09:21:20.507Z,78354.19
2019-02-14T09:23:51.760Z,78333.06
2019-02-14T09:26:22.982Z,78359.21
2019-02-14T09:28:54.161Z,78368.27
2019-02-14T09:31:25.454Z,78394.41
2019-02-14T09:33:56.691Z,78471.84
2019-02-14T09:36:27.995Z,78498.99
2019-02-14T09:38:59.454Z,78564.36
2019-02-14T09:41:30.781Z,78583.47
2019-02-14T09:44:02.027Z,78621.69
2019-02-14T09:46:33.257Z,78634.76
2019-02-14T09:49:04.659Z,78658.89
2019-02-14T09:51:35.989Z,78658.89
2019-02-14T09:54:07.297Z,78662.92
2019-02-14T09:56:38.588Z,78643.81
2019-02-14T09:59:09.858Z,78649.84
2019-02-14T10:01:41.147Z,78691.08
2019-02-14T10:04:12.343Z,78717.22
2019-02-14T10:06:43.560Z,78723.27
2019-02-14T10:09:14.909Z,78739.34
2019-02-14T10:11:46.175Z,78747.40
2019-02-14T10:14:17.431Z,78751.42
2019-02-14T10:16:48.802Z,78740.36
2019-02-14T10:19:20.113Z,78721.25
2019-02-14T10:21:51.383Z,78708.17
2019-02-14T10:24:22.711Z,78701.13
2019-02-14T10:26:53.985Z,78669.95
2019-02-14T10:29:25.230Z,78687.05
2019-02-14T10:31:56.564Z,78689.06
2019-02-14T10:34:27.745Z,78679.01
2019-02-14T10:36:58.964Z,78665.94
2019-02-14T10:39:40.441Z,78658.89
2019-02-14T10:42:11.920Z,78660.91
2019-02-14T10:44:43.214Z,78629.73
2019-02-14T10:47:14.471Z,78621.69
2019-02-14T10:49:45.769Z,78619.67
2019-02-14T10:52:17.188Z,78609.61
2019-02-14T10:54:48.434Z,78623.70
2019-02-14T10:57:19.855Z,78609.61
2019-02-14T10:59:51.198Z,78588.50
2019-02-14T11:02:22.670Z,78573.41
2019-02-14T11:04:53.970Z,78561.34
2019-02-14T11:07:25.297Z,78576.43
2019-02-14T11:09:56.631Z,78581.45
2019-02-14T11:12:27.961Z,78564.36
2019-02-14T11:14:59.409Z,78555.31
2019-02-14T11:17:30.721Z,78546.26
2019-02-14T11:20:20.997Z,78538.21
2019-02-14T11:22:52.365Z,78553.30
2019-02-14T11:25:28.074Z,78525.14
2019-02-14T11:27:59.377Z,78515.08
2019-02-14T11:30:30.757Z,78455.75
2019-02-14T11:33:02.116Z,78460.78
2019-02-14T11:35:33.424Z,78451.73
2019-02-14T11:38:04.723Z,78426.59
2019-02-14T11:40:36.219Z,78432.62
2019-02-14T11:43:07.579Z,78423.57
2019-02-14T11:45:38.814Z,78417.53
2019-02-14T11:48:10.071Z,78412.51
2019-02-14T11:50:41.449Z,78403.45
2019-02-14T11:55:19.391Z,78408.48
2019-02-14T11:55:45.922Z,78415.53
2019-02-14T11:58:17.214Z,78400.44
2019-02-14T12:00:48.500Z,78389.38
2019-02-14T12:03:19.745Z,78375.30
2019-02-14T12:05:51.047Z,78362.23
2019-02-14T12:08:22.254Z,78346.14
2019-02-14T12:10:53.537Z,78342.11
2019-02-14T12:13:24.776Z,78318.98
2019-02-14T12:15:56.086Z,78279.77
2019-02-14T12:18:27.252Z,78258.66
2019-02-14T12:20:58.552Z,78244.58
2019-02-14T12:23:29.818Z,78255.64
2019-02-14T12:26:01.081Z,78247.59
2019-02-14T12:28:32.603Z,78254.63
2019-02-14T12:31:03.932Z,78254.63
2019-02-14T12:33:36.929Z,78240.55
2019-02-14T12:36:09.541Z,78237.53
2019-02-14T12:38:40.849Z,78229.48
2019-02-14T12:41:12.244Z,78218.43
2019-02-14T12:43:46.943Z,78223.45
2019-02-14T12:46:18.212Z,78209.38
2019-02-14T12:48:49.606Z,78218.43
2019-02-14T12:51:20.972Z,78237.53
2019-02-14T12:53:52.272Z,78211.39
2019-02-14T12:56:23.565Z,78211.39
2019-02-14T12:58:54.892Z,78197.31
2019-02-14T13:01:26.174Z,78193.29
2019-02-14T13:03:57.520Z,78191.28
2019-02-14T13:06:28.725Z,78196.30
2019-02-14T13:08:59.955Z,78192.28
2019-02-14T13:11:31.135Z,78161.11
2019-02-14T13:14:02.445Z,78138.98
2019-02-14T13:16:33.713Z,78143.02
2019-02-14T13:19:04.890Z,78154.08
2019-02-14T13:21:36.226Z,78157.09
2019-02-14T13:24:07.451Z,78167.14
2019-02-14T13:26:38.702Z,78153.06
2019-02-14T13:29:09.984Z,78138.98
2019-02-14T13:31:41.290Z,78160.11
2019-02-14T13:34:31.502Z,78163.13
2019-02-14T13:37:02.846Z,78124.91
2019-02-14T13:39:34.117Z,78143.02
2019-02-14T13:42:05.321Z,78121.90
2019-02-14T13:44:36.605Z,78128.94
2019-02-14T13:47:07.906Z,78130.95
2019-02-14T13:49:39.196Z,78116.87
2019-02-14T13:52:10.511Z,78114.86
2019-02-14T13:54:41.771Z,78121.90
2019-02-14T13:57:13.048Z,78103.80
2019-02-14T13:59:44.376Z,78076.64
2019-02-14T14:02:15.694Z,78095.75
2019-02-14T14:04:47.058Z,78102.80
2019-02-14T14:07:18.307Z,78093.73
2019-02-14T14:09:49.588Z,78083.69
2019-02-14T14:12:21.717Z,78086.70
2019-02-14T14:14:52.911Z,78075.64
2019-02-14T14:17:24.214Z,78055.53
2019-02-14T14:19:55.481Z,78063.58
2019-02-14T14:22:26.733Z,78076.64
2019-02-14T14:24:58.044Z,78077.66
2019-02-14T14:27:29.303Z,78067.59
2019-02-14T14:30:00.617Z,78067.59
2019-02-14T14:32:31.893Z,78073.63
2019-02-14T14:35:03.156Z,78058.55
2019-02-14T14:37:34.506Z,78068.60
2019-02-14T14:40:06.799Z,78056.54
2019-02-14T14:43:05.941Z,78063.58
2019-02-14T14:45:45.870Z,78062.57
2019-02-14T14:48:19.675Z,78060.56
2019-02-14T14:50:50.174Z,78043.47
2019-02-14T14:53:21.481Z,78056.54
2019-02-14T14:55:53.115Z,78062.57
2019-02-14T14:58:24.443Z,78061.56
2019-02-14T15:00:55.796Z,78070.61
2019-02-14T15:03:27.201Z,78053.52
2019-02-14T15:05:58.497Z,78036.42
2019-02-14T15:08:29.670Z,77993.19
2019-02-14T15:11:00.988Z,78000.23
2019-02-14T15:13:32.313Z,78010.28
2019-02-14T15:16:03.588Z,78008.27
2019-02-14T15:18:34.861Z,78012.30
2019-02-14T15:21:06.086Z,78026.38
2019-02-14T15:23:37.361Z,78036.42
2019-02-14T15:26:08.626Z,78021.34
2019-02-14T15:28:39.880Z,78042.46
2019-02-14T15:31:11.164Z,78045.48
2019-02-14T15:33:42.454Z,78081.67
2019-02-14T15:36:13.645Z,78099.77
2019-02-14T15:38:44.955Z,78106.81
2019-02-14T15:41:16.230Z,78114.86
2019-02-14T15:43:47.455Z,78130.95
2019-02-14T15:46:18.807Z,78147.03
2019-02-14T15:48:50.699Z,78154.08
2019-02-14T15:51:21.974Z,78162.12
2019-02-14T15:53:53.301Z,78143.02
2019-02-14T15:56:24.565Z,78159.10
2019-02-14T15:58:57.384Z,78174.19
2019-02-14T16:01:29.019Z,78190.27
2019-02-14T16:04:00.379Z,78197.31
2019-02-14T16:06:31.662Z,78201.33
2019-02-14T16:09:02.907Z,78212.39
2019-02-14T16:11:36.424Z,78246.58
2019-02-14T16:14:07.159Z,78272.73
2019-02-14T16:16:38.375Z,78299.88
2019-02-14T16:19:10.950Z,78330.05
2019-02-14T16:21:42.522Z,78341.11
2019-02-14T16:24:14.340Z,78353.17
2019-02-14T16:26:46.791Z,78368.27
2019-02-14T16:29:18.008Z,78382.34
2019-02-14T16:31:49.271Z,78408.48
2019-02-14T16:34:20.612Z,78423.57
2019-02-14T16:36:51.868Z,78430.61
2019-02-14T16:39:25.559Z,78455.75
2019-02-14T16:41:56.069Z,78474.86
2019-02-14T16:44:27.332Z,78488.94
2019-02-14T16:46:58.663Z,78481.90
2019-02-14T16:49:29.905Z,78518.09
2019-02-14T16:51:57.250Z,78557.32
2019-02-14T16:54:28.533Z,78581.45
2019-02-14T16:56:59.827Z,78595.53
2019-02-14T16:59:31.194Z,78603.58
2019-02-14T17:02:02.534Z,78625.70
2019-02-14T17:04:33.855Z,78640.80
2019-02-14T17:07:05.077Z,78663.92
2019-02-14T17:09:36.514Z,78665.94
2019-02-14T17:12:07.879Z,78665.94
2019-02-14T17:14:39.181Z,78697.11
2019-02-14T17:17:10.778Z,78667.95
2019-02-14T17:19:42.034Z,78673.98
2019-02-14T17:22:13.329Z,78663.92
2019-02-14T17:24:44.636Z,78688.06
2019-02-14T17:27:15.945Z,78716.22
2019-02-14T17:29:47.228Z,78749.41
2019-02-14T17:32:18.478Z,78762.48
2019-02-14T17:34:49.823Z,78756.45
2019-02-14T17:37:21.089Z,78757.45
2019-02-14T17:39:52.334Z,78746.39
2019-02-14T17:42:23.618Z,78758.45
2019-02-14T17:44:54.845Z,78750.41
2019-02-14T17:47:26.145Z,78754.44
2019-02-14T17:49:57.458Z,78762.48
2019-02-14T17:52:28.756Z,78773.55
2019-02-14T17:55:00.014Z,78756.45
2019-02-14T17:57:31.347Z,78749.41
2019-02-14T18:00:21.589Z,78776.56
2019-02-14T18:02:52.915Z,78786.62
2019-02-14T18:05:24.154Z,78749.41
2019-02-14T18:07:55.455Z,78739.34
2019-02-14T18:10:26.769Z,78775.55
2019-02-14T18:12:58.122Z,78807.73
2019-02-14T18:15:29.421Z,78811.77
2019-02-14T18:18:00.713Z,78790.64
2019-02-14T18:20:32.027Z,78784.61
2019-02-14T18:23:03.337Z,78711.19
2019-02-14T18:25:34.638Z,78738.34
2019-02-14T18:28:05.821Z,78773.55
2019-02-14T18:30:37.155Z,78768.52
2019-02-14T18:33:08.423Z,78775.55
2019-02-14T18:35:39.829Z,78784.61
2019-02-14T18:38:11.111Z,78769.52
2019-02-14T18:40:45.298Z,78809.75
2019-02-14T18:43:16.686Z,78836.91
2019-02-14T18:45:48.140Z,78859.03
2019-02-14T18:48:19.751Z,78895.23
2019-02-14T18:50:51.053Z,78906.30
2019-02-14T18:53:22.381Z,78918.38
2019-02-14T18:55:53.807Z,78889.20
2019-02-14T18:58:26.616Z,78893.23
2019-02-14T19:00:58.193Z,78883.17
2019-02-14T19:03:29.527Z,78923.41
2019-02-14T19:06:00.882Z,78896.25
2019-02-14T19:08:34.690Z,78932.45
2019-02-14T19:11:14.911Z,78950.56
2019-02-14T19:13:40.839Z,78990.79
2019-02-14T19:16:12.275Z,79030.02
2019-02-14T19:18:43.776Z,79039.06
2019-02-14T19:21:15.191Z,79017.95
2019-02-14T19:23:46.785Z,79032.02
2019-02-14T19:26:18.126Z,79054.16
2019-02-14T19:28:49.455Z,79066.22
2019-02-14T19:31:20.721Z,79077.28
2019-02-14T19:33:52.038Z,79071.25
2019-02-14T19:36:23.402Z,79083.33
2019-02-14T19:38:54.707Z,79101.43
2019-02-14T19:41:26.034Z,79120.53
2019-02-14T19:43:57.415Z,79129.59
2019-02-14T19:46:28.702Z,79137.64
2019-02-14T19:48:59.976Z,79150.72
2019-02-14T19:51:31.325Z,79172.84
2019-02-14T19:54:02.586Z,79182.90
2019-02-14T19:56:33.926Z,79176.87
2019-02-14T19:59:05.293Z,79181.89
2019-02-14T20:01:36.499Z,79196.98
2019-02-14T20:04:07.695Z,79218.11
2019-02-14T20:06:38.990Z,79210.06
2019-02-14T20:09:10.535Z,79210.06
2019-02-14T20:11:41.849Z,79218.11
2019-02-14T20:14:13.106Z,79236.21
2019-02-14T20:16:44.448Z,79238.22
2019-02-14T20:19:15.797Z,79241.24
2019-02-14T20:21:47.083Z,79249.28
2019-02-14T20:24:18.367Z,79235.20
2019-02-14T20:26:49.663Z,79213.08
2019-02-14T20:29:20.967Z,79205.03
2019-02-14T20:31:52.283Z,79221.13
2019-02-14T20:34:23.494Z,79220.12
2019-02-14T20:36:54.889Z,79242.25
2019-02-14T20:39:26.363Z,79265.38
2019-02-14T20:41:57.741Z,79263.38
2019-02-14T20:44:29.039Z,79270.41
2019-02-14T20:47:00.431Z,79277.45
2019-02-14T20:49:33.431Z,79285.50
2019-02-14T20:52:04.711Z,79242.25
2019-02-14T20:54:36.205Z,79161.78
2019-02-14T20:57:07.665Z,79161.78
2019-02-14T20:59:38.993Z,79179.88
2019-02-14T21:02:12.019Z,79218.11
2019-02-14T21:04:43.561Z,79196.98
2019-02-14T21:07:14.866Z,79154.73
2019-02-14T21:09:46.359Z,79202.02
2019-02-14T21:12:17.626Z,79245.27
2019-02-14T21:14:48.937Z,79267.39
2019-02-14T21:17:20.268Z,79274.44
2019-02-14T21:19:51.566Z,79266.39
2019-02-14T21:22:22.866Z,79255.32
2019-02-14T21:24:54.402Z,79233.19
2019-02-14T21:27:25.779Z,79254.31
2019-02-14T21:29:57.143Z,79291.53
2019-02-14T21:32:28.516Z,79263.38
2019-02-14T21:35:00.086Z,79247.27
2019-02-14T21:37:31.689Z,79289.52
2019-02-14T21:40:03.040Z,79324.73
2019-02-14T21:42:34.398Z,79343.84
2019-02-14T21:45:06.174Z,79353.90
2019-02-14T21:47:37.512Z,79362.95
2019-02-14T21:50:10.528Z,79363.95
2019-02-14T21:52:42.004Z,79353.90
2019-02-14T21:55:13.566Z,79348.88
2019-02-14T21:57:44.998Z,79360.94
2019-02-14T22:00:19.240Z,79384.08
2019-02-14T22:02:50.606Z,79383.07
2019-02-14T22:05:25.203Z,79362.95
2019-02-14T22:07:54.964Z,79341.83
2019-02-14T22:10:26.303Z,79340.82
2019-02-14T22:12:57.502Z,79367.98
2019-02-14T22:15:28.985Z,79372.00
2019-02-14T22:18:00.262Z,79384.08
2019-02-14T22:20:31.660Z,79364.96
2019-02-14T22:23:02.971Z,79345.85
2019-02-14T22:25:35.673Z,79356.91
2019-02-14T22:28:07.075Z,79382.06
2019-02-14T22:30:38.389Z,79393.13
2019-02-14T22:33:09.597Z,79385.08
2019-02-14T22:35:40.877Z,79400.17
2019-02-14T22:38:12.154Z,79405.20
2019-02-14T22:40:43.445Z,79404.19
2019-02-14T22:43:14.701Z,79405.20
2019-02-14T22:45:46.004Z,79316.68
2019-02-14T22:48:17.241Z,79302.59
2019-02-14T22:50:48.527Z,79366.97
2019-02-14T22:53:19.831Z,79400.17
2019-02-14T22:55:51.096Z,79411.23
2019-02-14T22:58:22.487Z,79399.16
2019-02-14T23:00:59.934Z,79417.27
2019-02-14T23:03:31.227Z,79430.34
2019-02-14T23:06:02.614Z,79424.31
2019-02-14T23:08:33.932Z,79353.90
2019-02-14T23:11:05.182Z,79371.00
2019-02-14T23:13:36.512Z,79410.23
2019-02-14T23:16:07.812Z,79385.08
2019-02-14T23:18:39.064Z,79417.27
2019-02-14T23:21:10.301Z,79433.36
2019-02-14T23:23:41.539Z,79434.38
2019-02-14T23:26:12.756Z,79432.36
2019-02-14T23:28:43.963Z,79415.26
2019-02-14T23:31:15.220Z,79429.34
2019-02-14T23:33:46.493Z,79438.39
2019-02-14T23:36:15.031Z,79420.29
2019-02-14T23:38:46.195Z,79443.42
2019-02-14T23:41:18.489Z,79448.45
2019-02-14T23:43:49.742Z,79467.56
2019-02-14T23:46:21.259Z,79454.48
2019-02-14T23:48:52.520Z,79461.53
2019-02-14T23:51:24.589Z,79478.63
2019-02-14T23:53:55.858Z,79463.55
2019-02-14T23:56:26.996Z,79482.66
2019-02-14T23:58:58.360Z,79494.73
